Time;durP1;ratioP1;P1;durP2;ratioP2;P2;SDS_P1;SDS_P2;PMS_P1;PMS_P2;Temp;Humidity;BMP_temperature;BMP_pressure;BME280_temperature;BME280_humidity;BME280_pressure;Samples;Min_cycle;Max_cycle;Signal;HPM_P1;HPM_P2
2021/11/04 00:00:36;;;;;;;1.08;0.50;;;;;;;6.00;73.52;99617.69;4999530;28;20046;-47
2021/11/04 00:03:03;;;;;;;2.85;0.65;;;;;;;6.02;73.55;99626.31;5005864;28;20048;-49
2021/11/04 00:05:31;;;;;;;1.20;0.70;;;;;;;6.04;73.58;99622.06;5002293;28;20054;-47
2021/11/04 00:08:03;;;;;;;1.15;0.55;;;;;;;6.06;73.07;99620.38;5001841;28;20057;-45
2021/11/04 00:10:32;;;;;;;1.95;0.50;;;;;;;6.05;72.02;99621.22;5003945;28;20050;-50
2021/11/04 00:12:59;;;;;;;0.73;0.35;;;;;;;6.08;73.22;99622.97;5006232;28;20489;-50
2021/11/04 00:15:26;;;;;;;2.60;0.90;;;;;;;6.08;71.52;99621.22;5002622;28;20050;-54
2021/11/04 00:17:53;;;;;;;4.30;0.93;;;;;;;6.08;71.99;99628.94;5004167;28;20050;-51
2021/11/04 00:20:20;;;;;;;1.35;0.68;;;;;;;6.06;72.54;99627.22;5002979;28;20112;-55
2021/11/04 00:22:47;;;;;;;2.28;0.60;;;;;;;6.04;72.01;99629.75;5001275;28;20045;-52
2021/11/04 00:25:17;;;;;;;1.60;0.85;;;;;;;6.00;72.43;99628.84;4999820;28;20048;-50
2021/11/04 00:27:44;;;;;;;4.78;2.72;;;;;;;5.97;71.95;99628.81;4997446;28;20054;-52
2021/11/04 00:30:12;;;;;;;15.07;5.57;;;;;;;5.96;73.24;99633.94;4997950;28;20038;-49
2021/11/04 00:32:49;;;;;;;19.45;6.85;;;;;;;5.96;72.15;99631.38;5002005;28;20127;-49
2021/11/04 00:35:15;;;;;;;;;;;;;;;5.82;72.42;99639.81;5000351;28;21105;-46
2021/11/04 00:37:43;;;;;;;9.57;4.45;;;;;;;5.89;71.82;99649.31;5003450;28;19921;-53
2021/11/04 00:40:14;;;;;;;9.98;4.45;;;;;;;5.90;72.84;99648.47;5003361;28;20061;-57
2021/11/04 00:42:40;;;;;;;;;;;;;;;5.77;72.21;99646.59;5002322;28;21666;-52
2021/11/04 00:45:07;;;;;;;5.85;2.83;;;;;;;5.78;72.67;99640.63;5000423;28;19921;-53
2021/11/04 00:47:34;;;;;;;4.93;2.25;;;;;;;5.75;72.59;99640.59;5001485;28;20054;-49
2021/11/04 00:50:03;;;;;;;4.03;1.83;;;;;;;5.73;72.45;99644.84;5004711;28;20052;-50
2021/11/04 00:52:29;;;;;;;3.10;1.05;;;;;;;5.72;72.87;99648.28;5007150;28;20082;-47
2021/11/04 00:54:56;;;;;;;3.35;1.27;;;;;;;5.72;72.54;99643.13;5001869;28;20049;-48
2021/11/04 00:57:23;;;;;;;9.23;1.30;;;;;;;5.73;72.42;99650.00;4999492;28;20502;-50
2021/11/04 00:59:50;;;;;;;4.05;1.02;;;;;;;5.73;71.98;99647.41;5002025;28;20050;-47
2021/11/04 01:02:16;;;;;;;1.80;0.85;;;;;;;5.70;72.00;99648.25;4997957;28;20545;-53
2021/11/04 01:04:43;;;;;;;1.00;0.70;;;;;;;5.72;71.93;99658.56;5005843;28;20057;-52
2021/11/04 01:07:09;;;;;;;2.40;1.05;;;;;;;5.73;71.43;99656.00;5004016;28;20506;-53
2021/11/04 01:09:36;;;;;;;1.15;0.40;;;;;;;5.77;71.08;99651.75;5003475;28;20046;-55
2021/11/04 01:12:03;;;;;;;0.50;0.40;;;;;;;5.73;71.23;99655.13;5001739;28;20111;-48
2021/11/04 01:14:30;;;;;;;0.50;0.25;;;;;;;5.75;71.93;99662.00;5003100;28;20072;-48
2021/11/04 01:16:57;;;;;;;0.50;0.30;;;;;;;5.73;70.86;99658.56;5001205;28;20453;-52
2021/11/04 01:19:23;;;;;;;0.75;0.43;;;;;;;5.72;70.95;99661.13;5003707;28;20536;-55
2021/11/04 01:21:50;;;;;;;0.32;0.30;;;;;;;5.72;70.89;99662.00;5004582;28;20058;-48
2021/11/04 01:24:17;;;;;;;0.50;0.40;;;;;;;5.72;71.19;99666.25;4999475;28;20050;-48
2021/11/04 01:26:43;;;;;;;2.17;0.40;;;;;;;5.74;71.94;99662.03;5000345;28;20046;-46
2021/11/04 01:29:10;;;;;;;0.75;0.40;;;;;;;5.75;71.69;99668.88;5001366;28;20049;-48
2021/11/04 01:31:37;;;;;;;0.55;0.35;;;;;;;5.73;70.91;99660.28;4999392;28;20046;-48
2021/11/04 01:34:03;;;;;;;1.02;0.43;;;;;;;5.74;71.69;99669.72;4996992;28;20049;-49
2021/11/04 01:36:30;;;;;;;0.55;0.25;;;;;;;5.76;70.58;99668.91;5001145;28;20080;-44
2021/11/04 01:38:58;;;;;;;0.47;0.20;;;;;;;5.76;70.58;99670.59;4998438;28;20054;-56
2021/11/04 01:41:25;;;;;;;0.57;0.30;;;;;;;5.72;71.27;99669.72;4997603;28;20398;-48
2021/11/04 01:43:51;;;;;;;2.25;0.30;;;;;;;5.73;71.56;99678.25;5004985;28;21634;-46
2021/11/04 01:46:20;;;;;;;1.50;0.40;;;;;;;5.68;71.21;99664.50;5002262;28;20041;-49
2021/11/04 01:48:48;;;;;;;0.47;0.28;;;;;;;5.61;70.66;99656.72;4999341;28;20054;-56
2021/11/04 01:51:18;;;;;;;1.48;0.32;;;;;;;5.63;71.06;99655.03;5000921;28;20133;-55
2021/11/04 01:53:46;;;;;;;0.30;0.30;;;;;;;5.55;70.82;99661.81;4994989;28;20048;-49
2021/11/04 01:56:13;;;;;;;1.10;0.75;;;;;;;5.56;71.19;99658.38;4986810;28;20092;-47
2021/11/04 01:58:39;;;;;;;0.47;0.20;;;;;;;5.57;70.74;99662.66;5004356;28;20053;-49
2021/11/04 02:01:07;;;;;;;1.33;0.38;;;;;;;5.55;70.96;99663.50;5002030;28;20042;-53
2021/11/04 02:03:59;;;;;;;1.60;0.50;;;;;;;5.51;70.59;99662.63;5003292;28;20539;-52
2021/11/04 02:06:42;;;;;;;2.05;0.60;;;;;;;5.48;70.78;99665.16;5003776;28;20057;-53
2021/11/04 02:09:19;;;;;;;3.28;0.20;;;;;;;5.46;70.27;99664.25;5007269;28;20136;-52
2021/11/04 02:11:54;;;;;;;1.08;0.70;;;;;;;5.45;70.83;99670.25;5004349;28;20046;-56
2021/11/04 02:14:26;;;;;;;0.88;0.40;;;;;;;5.42;70.64;99672.75;5001782;28;20057;-49
2021/11/04 02:16:55;;;;;;;1.25;0.75;;;;;;;5.35;70.11;99672.72;5003208;28;20053;-55
2021/11/04 02:19:44;;;;;;;0.60;0.28;;;;;;;5.32;70.58;99670.09;5007562;28;20046;-54
2021/11/04 02:22:37;;;;;;;1.95;0.30;;;;;;;5.29;69.75;99672.63;5004541;28;20528;-50
2021/11/04 02:25:26;;;;;;;4.10;0.38;;;;;;;5.27;70.11;99679.44;5002814;28;20041;-53
2021/11/04 02:27:57;;;;;;;1.17;0.50;;;;;;;5.32;71.04;99675.22;5002046;28;20096;-51
2021/11/04 02:30:27;;;;;;;2.85;0.35;;;;;;;5.33;70.94;99676.09;5003134;28;20046;-49
2021/11/04 02:32:55;;;;;;;0.75;0.35;;;;;;;5.35;70.64;99680.41;5002414;28;20411;-47
2021/11/04 02:35:22;;;;;;;1.67;0.50;;;;;;;5.32;71.02;99675.22;5003678;28;20099;-50
2021/11/04 02:37:52;;;;;;;0.82;0.40;;;;;;;5.28;71.18;99669.19;5004318;28;20058;-51
2021/11/04 02:40:21;;;;;;;1.98;0.35;;;;;;;5.21;71.31;99666.53;5006767;28;20050;-54
2021/11/04 02:42:50;;;;;;;0.93;0.40;;;;;;;5.19;70.89;99668.19;5003147;28;20049;-50
2021/11/04 02:45:20;;;;;;;1.98;0.52;;;;;;;5.09;70.90;99668.09;5003099;28;20046;-52
2021/11/04 02:47:47;;;;;;;0.82;0.40;;;;;;;5.06;71.21;99673.16;5005733;28;20050;-50
2021/11/04 02:50:16;;;;;;;2.33;0.70;;;;;;;5.03;71.15;99673.13;5008374;28;20120;-55
2021/11/04 02:52:44;;;;;;;1.42;0.60;;;;;;;5.00;71.05;99673.09;5002237;28;20137;-51
2021/11/04 02:55:11;;;;;;;1.13;0.60;;;;;;;4.95;71.22;99678.16;5005359;28;20145;-49
2021/11/04 02:57:43;;;;;;;2.55;0.73;;;;;;;4.98;71.34;99669.63;5005097;28;20123;-50
2021/11/04 03:00:12;;;;;;;1.63;0.57;;;;;;;4.99;71.43;99674.78;4986555;28;20294;-52
2021/11/04 03:02:39;;;;;;;1.17;0.70;;;;;;;5.00;71.52;99668.81;5002842;28;20081;-56
2021/11/04 03:05:06;;;;;;;2.08;0.88;;;;;;;5.00;71.41;99680.81;5002899;28;20050;-55
2021/11/04 03:07:33;;;;;;;1.30;0.60;;;;;;;4.99;71.07;99682.50;5002929;28;20046;-53
2021/11/04 03:09:59;;;;;;;2.20;1.00;;;;;;;4.98;70.63;99685.03;5004871;28;20053;-53
2021/11/04 03:12:26;;;;;;;2.58;0.63;;;;;;;4.97;71.37;99678.19;4997457;28;20053;-52
2021/11/04 03:14:53;;;;;;;2.05;0.68;;;;;;;4.94;71.47;99680.69;5005640;28;20201;-56
2021/11/04 03:17:20;;;;;;;1.20;0.50;;;;;;;4.92;70.81;99684.94;5001509;28;20054;-51
2021/11/04 03:19:48;;;;;;;1.80;0.60;;;;;;;4.83;71.37;99686.53;5004899;28;20053;-53
2021/11/04 03:22:15;;;;;;;2.05;0.57;;;;;;;4.77;71.45;99686.47;5000362;28;20050;-47
2021/11/04 03:24:42;;;;;;;2.78;0.93;;;;;;;4.70;71.62;99684.63;5004060;28;20104;-51
2021/11/04 03:27:10;;;;;;;1.35;0.73;;;;;;;4.66;70.86;99688.84;4998744;28;20049;-52
2021/11/04 03:29:39;;;;;;;1.10;0.50;;;;;;;4.60;71.52;99689.59;4996638;28;20053;-55
2021/11/04 03:32:13;;;;;;;1.80;0.68;;;;;;;4.58;71.46;99690.44;5002217;28;20049;-50
2021/11/04 03:34:41;;;;;;;1.35;0.80;;;;;;;4.55;71.22;99691.25;4999867;28;20414;-53
2021/11/04 03:37:08;;;;;;;2.15;0.80;;;;;;;4.57;71.65;99689.59;5002397;28;20045;-50
2021/11/04 03:39:36;;;;;;;1.40;0.57;;;;;;;4.57;72.39;99694.72;5000496;28;20049;-52
2021/11/04 03:42:03;;;;;;;2.03;0.70;;;;;;;4.60;71.77;99693.88;5001075;28;20108;-52
2021/11/04 03:44:30;;;;;;;1.55;0.68;;;;;;;4.63;71.73;99694.78;5001088;28;20123;-50
2021/11/04 03:46:57;;;;;;;1.35;0.57;;;;;;;4.61;72.00;99696.47;5004442;28;20107;-51
2021/11/04 03:49:25;;;;;;;2.83;0.90;;;;;;;4.59;72.24;99708.41;5003897;28;20038;-53
2021/11/04 03:51:54;;;;;;;1.70;0.90;;;;;;;4.59;71.76;99700.72;5000442;28;20108;-53
2021/11/04 03:54:23;;;;;;;2.83;0.75;;;;;;;4.61;71.76;99704.19;5001824;28;20057;-49
2021/11/04 03:56:51;;;;;;;1.30;0.93;;;;;;;4.59;71.94;99702.44;4990114;28;20042;-54
2021/11/04 03:59:18;;;;;;;2.42;0.77;;;;;;;4.61;71.87;99706.75;5005559;28;20054;-48
2021/11/04 04:01:45;;;;;;;2.45;0.60;;;;;;;4.62;71.45;99703.34;5000709;28;20045;-52
2021/11/04 04:04:12;;;;;;;0.98;0.50;;;;;;;4.63;72.23;99707.63;4998399;28;20179;-44
2021/11/04 04:06:39;;;;;;;2.88;0.82;;;;;;;4.66;72.24;99711.94;4999652;28;20062;-53
2021/11/04 04:09:07;;;;;;;0.93;0.50;;;;;;;4.68;71.86;99706.81;5001247;28;20052;-49
2021/11/04 04:11:34;;;;;;;2.72;1.00;;;;;;;4.68;71.58;99709.38;4990973;28;20056;-50
2021/11/04 04:14:01;;;;;;;1.10;0.63;;;;;;;4.65;71.67;99711.91;4998497;28;20050;-53
2021/11/04 04:16:28;;;;;;;2.35;0.60;;;;;;;4.66;72.12;99711.09;5003001;28;20045;-47
2021/11/04 04:18:54;;;;;;;1.85;0.65;;;;;;;4.66;71.88;99716.22;5003292;28;20064;-54
2021/11/04 04:21:21;;;;;;;1.40;0.60;;;;;;;4.62;72.12;99713.59;5005155;28;20104;-57
2021/11/04 04:23:48;;;;;;;2.50;0.40;;;;;;;4.58;71.70;99722.06;4999406;28;20428;-56
2021/11/04 04:26:14;;;;;;;3.90;0.90;;;;;;;4.58;71.92;99716.94;4999273;28;20037;-53
2021/11/04 04:28:41;;;;;;;2.28;0.73;;;;;;;4.56;71.52;99721.19;4993002;28;20058;-50
2021/11/04 04:31:08;;;;;;;2.15;1.00;;;;;;;4.59;72.18;99721.22;4995479;28;20042;-51
2021/11/04 04:33:35;;;;;;;2.38;0.68;;;;;;;4.60;72.14;99725.53;5011361;28;20092;-55
2021/11/04 04:36:01;;;;;;;2.20;0.80;;;;;;;4.61;72.01;99717.00;4997031;28;20108;-50
2021/11/04 04:38:28;;;;;;;1.42;0.55;;;;;;;4.57;72.58;99715.22;5003844;28;20049;-55
2021/11/04 04:40:55;;;;;;;2.83;0.80;;;;;;;4.57;72.39;99717.78;4999089;28;20112;-51
2021/11/04 04:43:21;;;;;;;3.38;0.70;;;;;;;4.61;72.45;99718.69;5003966;28;20054;-54
2021/11/04 04:45:48;;;;;;;2.13;0.60;;;;;;;4.58;72.15;99722.06;5002783;28;20067;-50
2021/11/04 04:48:15;;;;;;;2.42;1.25;;;;;;;4.57;72.71;99725.50;5002293;28;20080;-59
2021/11/04 04:50:43;;;;;;;1.65;0.68;;;;;;;4.59;72.43;99726.38;5002625;28;20050;-55
2021/11/04 04:53:10;;;;;;;2.03;0.77;;;;;;;4.60;72.36;99717.81;5003805;28;20096;-49
2021/11/04 04:55:37;;;;;;;2.15;0.82;;;;;;;4.59;73.05;99716.09;5000714;28;20050;-51
2021/11/04 04:58:06;;;;;;;1.33;0.70;;;;;;;4.58;72.84;99732.34;4999488;28;20050;-49
2021/11/04 05:00:34;;;;;;;0.77;0.52;;;;;;;4.60;72.86;99728.09;5003313;28;20045;-59
2021/11/04 05:03:01;;;;;;;4.05;0.70;;;;;;;4.62;72.92;99734.13;5000590;28;20046;-47
2021/11/04 05:05:28;;;;;;;2.10;0.98;;;;;;;4.65;72.69;99737.56;5000777;28;20058;-56
2021/11/04 05:07:54;;;;;;;1.60;0.40;;;;;;;4.65;73.08;99740.13;5007957;28;20126;-53
2021/11/04 05:10:21;;;;;;;1.13;0.70;;;;;;;4.67;72.73;99743.59;5005490;28;20041;-54
2021/11/04 05:12:47;;;;;;;1.90;0.68;;;;;;;4.71;72.78;99743.66;5007340;28;20045;-50
2021/11/04 05:15:14;;;;;;;1.60;0.50;;;;;;;4.73;72.94;99741.13;5005286;28;20066;-50
2021/11/04 05:17:43;;;;;;;2.92;1.00;;;;;;;4.74;73.18;99742.84;5006370;28;20697;-47
2021/11/04 05:20:10;;;;;;;2.55;0.75;;;;;;;4.74;73.17;99753.13;5008019;28;20510;-51
2021/11/04 05:22:37;;;;;;;2.05;0.73;;;;;;;4.75;72.68;99757.41;5010782;28;20068;-50
2021/11/04 05:25:04;;;;;;;2.38;0.88;;;;;;;4.75;73.06;99765.09;5000617;28;20053;-47
2021/11/04 05:27:31;;;;;;;1.92;0.73;;;;;;;4.76;72.99;99764.25;5006216;28;20125;-52
2021/11/04 05:29:57;;;;;;;2.15;0.75;;;;;;;4.72;73.21;99768.47;5005128;28;20054;-56
2021/11/04 05:32:24;;;;;;;1.45;0.50;;;;;;;4.70;73.48;99766.75;5004789;28;20042;-48
2021/11/04 05:34:51;;;;;;;0.90;0.60;;;;;;;4.71;72.88;99773.59;5008023;28;20046;-56
2021/11/04 05:37:18;;;;;;;1.40;1.05;;;;;;;4.72;73.34;99770.16;5007384;28;20756;-52
2021/11/04 05:39:45;;;;;;;1.48;1.20;;;;;;;4.73;73.40;99761.66;4995374;28;20685;-46
2021/11/04 05:42:12;;;;;;;1.52;0.52;;;;;;;4.71;74.17;99776.16;5000874;28;20414;-51
2021/11/04 05:44:38;;;;;;;2.17;0.75;;;;;;;4.76;73.81;99774.50;5002671;28;20050;-56
2021/11/04 05:47:06;;;;;;;1.65;0.65;;;;;;;4.75;74.13;99771.09;5003291;28;20045;-50
2021/11/04 05:49:37;;;;;;;2.85;0.63;;;;;;;4.80;73.96;99768.59;5002033;28;20061;-50
2021/11/04 05:52:04;;;;;;;1.80;0.68;;;;;;;4.85;73.70;99772.13;5002530;28;20093;-53
2021/11/04 05:54:30;;;;;;;1.58;0.80;;;;;;;4.86;74.11;99768.72;5004835;28;20481;-50
2021/11/04 05:56:57;;;;;;;2.30;0.73;;;;;;;4.89;74.47;99779.03;5004739;28;20557;-54
2021/11/04 05:59:24;;;;;;;1.25;0.95;;;;;;;4.87;74.67;99778.13;5004201;28;20050;-52
2021/11/04 06:01:53;;;;;;;0.75;0.50;;;;;;;4.89;75.06;99779.03;4999510;28;20058;-55
2021/11/04 06:04:20;;;;;;;1.60;0.60;;;;;;;4.93;74.65;99784.22;5001583;28;20058;-49
2021/11/04 06:06:47;;;;;;;1.23;0.55;;;;;;;4.94;75.00;99796.19;5003607;28;20045;-55
2021/11/04 06:09:14;;;;;;;2.08;0.75;;;;;;;4.98;74.12;99797.97;4993259;28;20050;-56
2021/11/04 06:11:40;;;;;;;1.98;0.80;;;;;;;4.99;74.78;99804.84;5006521;28;20061;-49
2021/11/04 06:14:07;;;;;;;0.82;0.60;;;;;;;5.00;75.05;99796.31;5005964;28;20116;-51
2021/11/04 06:16:34;;;;;;;1.08;0.52;;;;;;;5.02;75.08;99799.75;5002999;28;20666;-56
2021/11/04 06:19:00;;;;;;;4.22;1.08;;;;;;;5.07;74.33;99810.94;5004402;28;20043;-49
2021/11/04 06:21:27;;;;;;;2.20;0.70;;;;;;;5.08;74.82;99810.13;5004914;28;20042;-55
2021/11/04 06:23:53;;;;;;;2.47;0.65;;;;;;;5.10;75.00;99813.56;5003445;28;20058;-53
2021/11/04 06:26:20;;;;;;;1.98;0.60;;;;;;;5.12;75.29;99824.75;5002684;28;20054;-49
2021/11/04 06:28:47;;;;;;;1.45;0.63;;;;;;;5.14;74.91;99815.34;5002872;28;20049;-52
2021/11/04 06:31:13;;;;;;;1.80;0.95;;;;;;;5.16;74.53;99819.66;5005758;28;20049;-47
2021/11/04 06:33:40;;;;;;;0.63;0.40;;;;;;;5.14;74.69;99825.63;5001899;28;20046;-50
2021/11/04 06:36:10;;;;;;;1.08;0.50;;;;;;;5.17;75.50;99823.94;5005891;28;20445;-47
2021/11/04 06:38:37;;;;;;;1.25;0.20;;;;;;;5.19;75.52;99830.84;5003045;28;20409;-57
2021/11/04 06:41:04;;;;;;;1.67;0.30;;;;;;;5.24;74.58;99836.03;5002233;28;20200;-55
2021/11/04 06:43:31;;;;;;;3.33;0.60;;;;;;;5.25;75.13;99838.66;5001002;28;20116;-49
2021/11/04 06:46:01;;;;;;;1.70;0.50;;;;;;;5.27;75.68;99843.81;5006872;28;20042;-57
2021/11/04 06:48:42;;;;;;;2.22;0.70;;;;;;;5.34;74.69;99852.47;5003879;28;20100;-56
2021/11/04 06:51:12;;;;;;;5.78;1.23;;;;;;;5.34;74.63;99850.75;5006910;28;20060;-55
2021/11/04 06:53:43;;;;;;;1.90;0.60;;;;;;;5.39;74.24;99850.81;4999645;28;20057;-59
2021/11/04 06:56:10;;;;;;;0.88;0.45;;;;;;;5.38;74.61;99855.09;5003289;28;20057;-54
2021/11/04 06:58:38;;;;;;;4.00;0.63;;;;;;;5.39;74.09;99854.25;5004986;28;20037;-50
2021/11/04 07:01:13;;;;;;;1.77;0.57;;;;;;;5.39;74.27;99856.84;5000493;28;20049;-55
2021/11/04 07:03:49;;;;;;;1.17;0.43;;;;;;;5.40;74.97;99865.38;5005321;28;20105;-53
2021/11/04 07:06:28;;;;;;;4.50;1.20;;;;;;;5.41;74.92;99864.56;5000928;28;20058;-52
2021/11/04 07:08:57;;;;;;;1.15;0.55;;;;;;;5.44;74.29;99868.88;5012869;28;20054;-53
2021/11/04 07:11:25;;;;;;;3.05;0.90;;;;;;;5.43;75.06;99872.28;5000075;28;20038;-51
2021/11/04 07:13:52;;;;;;;2.47;0.50;;;;;;;5.44;74.00;99880.00;4999487;28;20064;-53
2021/11/04 07:16:22;;;;;;;1.67;0.90;;;;;;;5.45;75.12;99878.31;5001981;28;20097;-47
2021/11/04 07:18:50;;;;;;;2.22;0.80;;;;;;;5.45;74.71;99897.16;5000381;28;20057;-52
2021/11/04 07:21:28;;;;;;;1.60;0.60;;;;;;;5.46;74.44;99880.03;4997193;28;20058;-52
2021/11/04 07:24:01;;;;;;;2.92;0.85;;;;;;;5.49;74.74;99888.66;4996678;28;20387;-53
2021/11/04 07:26:35;;;;;;;2.25;0.40;;;;;;;5.48;74.73;99901.47;5001228;28;20474;-50
2021/11/04 07:29:04;;;;;;;0.50;0.50;;;;;;;5.51;74.65;99899.81;5001650;28;20051;-50
2021/11/04 07:31:35;;;;;;;2.45;0.75;;;;;;;5.53;75.22;99899.84;5000357;28;20600;-56
2021/11/04 07:34:04;;;;;;;0.60;0.52;;;;;;;5.56;75.27;99909.28;5001907;28;20046;-54
2021/11/04 07:36:34;;;;;;;0.80;0.30;;;;;;;5.58;73.91;99911.06;5001467;28;20112;-52
2021/11/04 07:39:02;;;;;;;1.55;0.50;;;;;;;5.62;74.93;99928.25;5001476;28;20057;-50
2021/11/04 07:41:31;;;;;;;1.52;0.73;;;;;;;5.69;74.00;99925.75;4995112;28;20716;-50
2021/11/04 07:43:58;;;;;;;2.15;0.88;;;;;;;5.71;73.92;99931.81;4996261;28;20065;-48
2021/11/04 07:46:27;;;;;;;1.67;0.43;;;;;;;5.74;73.85;99935.28;4999170;28;20441;-56
2021/11/04 07:48:54;;;;;;;3.35;0.52;;;;;;;5.77;73.88;99939.59;4983880;28;20062;-54
2021/11/04 07:51:22;;;;;;;0.73;0.30;;;;;;;5.75;73.64;99946.44;4992895;28;20053;-58
2021/11/04 07:53:48;;;;;;;1.38;0.43;;;;;;;5.75;74.55;99943.88;5001246;28;20053;-53
2021/11/04 07:56:15;;;;;;;0.50;0.30;;;;;;;5.79;73.73;99946.50;5000307;28;20046;-53
2021/11/04 07:58:42;;;;;;;1.80;0.60;;;;;;;5.80;74.00;99952.50;5001256;28;20045;-52
2021/11/04 08:01:09;;;;;;;1.88;0.70;;;;;;;5.85;73.30;99950.00;4998440;28;20050;-51
2021/11/04 08:03:35;;;;;;;1.65;0.60;;;;;;;5.86;74.21;99955.16;4995619;28;20038;-53
2021/11/04 08:06:03;;;;;;;1.45;1.08;;;;;;;5.92;74.43;99952.66;4997500;28;20697;-51
2021/11/04 08:08:30;;;;;;;0.88;0.50;;;;;;;5.97;72.74;99959.59;4995922;28;20108;-50
2021/11/04 08:10:56;;;;;;;0.45;0.40;;;;;;;5.97;73.79;99957.03;4998206;28;20530;-53
2021/11/04 08:13:23;;;;;;;5.03;1.27;;;;;;;6.01;73.85;99969.09;4996592;28;20449;-49
2021/11/04 08:15:49;;;;;;;1.75;0.20;;;;;;;6.00;72.81;99967.34;4999217;28;20124;-54
2021/11/04 08:18:16;;;;;;;0.40;0.35;;;;;;;6.04;72.13;99969.16;4994407;28;20486;-52
2021/11/04 08:20:43;;;;;;;0.82;0.45;;;;;;;6.08;73.20;99970.94;5002995;28;20076;-47
2021/11/04 08:23:12;;;;;;;0.75;0.30;;;;;;;6.08;72.58;99976.06;4999244;28;20116;-50
2021/11/04 08:25:40;;;;;;;0.60;0.55;;;;;;;6.11;73.29;99980.41;4980155;28;20046;-49
2021/11/04 08:28:07;;;;;;;1.55;0.63;;;;;;;6.17;72.59;99985.63;4995369;28;20045;-47
2021/11/04 08:30:34;;;;;;;0.75;0.50;;;;;;;6.16;72.59;99984.78;5002283;28;20100;-53
2021/11/04 08:33:01;;;;;;;2.92;0.40;;;;;;;6.24;72.66;99984.88;4996401;28;20729;-53
2021/11/04 08:35:28;;;;;;;1.52;0.45;;;;;;;6.29;72.17;99990.09;4996354;28;20038;-55
2021/11/04 08:37:55;;;;;;;0.50;0.47;;;;;;;6.26;72.35;99985.78;4997788;28;20050;-50
2021/11/04 08:40:22;;;;;;;2.45;0.45;;;;;;;6.31;72.93;99985.81;4995363;28;20057;-53
2021/11/04 08:42:50;;;;;;;6.90;0.60;;;;;;;6.35;72.50;100000.44;4996274;28;20141;-49
2021/11/04 08:45:17;;;;;;;0.90;0.30;;;;;;;6.40;72.21;100003.97;4999448;28;20050;-52
2021/11/04 08:47:44;;;;;;;1.63;0.85;;;;;;;6.46;71.65;99999.75;5000196;28;20092;-49
2021/11/04 08:50:13;;;;;;;0.70;0.50;;;;;;;6.51;72.17;100001.53;4999528;28;20057;-57
2021/11/04 08:52:40;;;;;;;2.25;0.52;;;;;;;6.53;72.34;100017.00;4996918;28;20058;-50
2021/11/04 08:55:08;;;;;;;1.50;0.95;;;;;;;6.59;71.90;100019.66;4999291;28;20061;-56
2021/11/04 08:57:36;;;;;;;1.00;0.35;;;;;;;6.62;72.20;100024.81;4994567;28;20057;-54
2021/11/04 09:00:06;;;;;;;3.30;0.77;;;;;;;6.71;70.69;100013.78;5000504;28;20084;-47
2021/11/04 09:02:33;;;;;;;0.68;0.20;;;;;;;6.78;70.33;100025.03;4998525;28;20050;-49
2021/11/04 09:05:02;;;;;;;1.98;0.80;;;;;;;6.84;69.40;100014.81;5001931;28;20054;-57
2021/11/04 09:07:29;;;;;;;0.88;0.47;;;;;;;6.91;70.33;100019.19;4999456;28;20062;-51
2021/11/04 09:09:55;;;;;;;1.00;0.43;;;;;;;6.98;70.52;100024.41;5005335;28;20053;-50
2021/11/04 09:12:22;;;;;;;2.28;0.75;;;;;;;6.99;70.83;100023.56;5000046;28;20057;-52
2021/11/04 09:14:49;;;;;;;1.48;0.45;;;;;;;7.06;69.03;100030.53;4996727;28;20050;-52
2021/11/04 09:17:17;;;;;;;1.02;0.63;;;;;;;7.08;69.07;100033.97;5001860;28;20513;-51
2021/11/04 09:19:45;;;;;;;1.13;0.70;;;;;;;7.04;69.52;100039.94;5005352;28;20165;-49
2021/11/04 09:22:12;;;;;;;0.80;0.30;;;;;;;7.06;68.91;100040.84;4999817;28;20045;-51
2021/11/04 09:24:40;;;;;;;1.85;0.60;;;;;;;7.08;68.80;100039.13;4997988;28;20497;-48
2021/11/04 09:27:06;;;;;;;1.95;0.63;;;;;;;7.13;69.73;100036.59;5004157;28;20448;-49
2021/11/04 09:29:35;;;;;;;1.70;0.40;;;;;;;7.22;69.42;100051.31;5002335;28;20140;-55
2021/11/04 09:32:06;;;;;;;2.78;0.40;;;;;;;7.28;69.27;100041.03;4989414;28;20397;-49
2021/11/04 09:34:52;;;;;;;4.50;0.50;;;;;;;7.62;68.74;100038.81;4999034;28;20062;-51
2021/11/04 09:37:19;;;;;;;0.45;0.20;;;;;;;7.67;67.85;100044.88;4999120;28;20047;-56
2021/11/04 09:39:49;;;;;;;2.33;1.17;;;;;;;7.66;68.48;100050.88;4998031;28;20112;-57
2021/11/04 09:42:18;;;;;;;2.17;0.30;;;;;;;7.61;67.69;100055.13;5005930;28;20421;-52
2021/11/04 09:44:46;;;;;;;1.50;0.47;;;;;;;7.51;67.26;100055.88;5001319;28;20097;-52
2021/11/04 09:47:13;;;;;;;1.00;0.45;;;;;;;7.56;68.31;100061.94;5003213;28;20065;-56
2021/11/04 09:49:40;;;;;;;1.50;0.30;;;;;;;7.56;68.66;100065.41;5000766;28;20046;-51
2021/11/04 09:52:06;;;;;;;2.00;0.50;;;;;;;7.60;68.90;100068.84;5000279;28;20058;-57
2021/11/04 09:54:33;;;;;;;2.05;0.30;;;;;;;7.57;67.10;100068.84;5001412;28;20454;-54
2021/11/04 09:57:00;;;;;;;1.15;0.30;;;;;;;7.64;68.23;100073.22;5001305;28;20053;-54
2021/11/04 09:59:26;;;;;;;0.47;0.30;;;;;;;7.67;67.40;100073.22;5000564;28;20097;-49
2021/11/04 10:01:53;;;;;;;2.58;0.20;;;;;;;7.62;67.94;100071.44;5006977;28;20053;-51
2021/11/04 10:04:38;;;;;;;0.75;0.30;;;;;;;7.65;66.17;100082.69;5001913;28;20042;-55
2021/11/04 10:07:06;;;;;;;0.57;0.40;;;;;;;7.77;66.93;100086.22;5002707;28;20050;-56
2021/11/04 10:09:33;;;;;;;0.73;0.43;;;;;;;7.81;66.61;100093.13;5001990;28;20069;-55
2021/11/04 10:12:05;;;;;;;3.05;0.35;;;;;;;7.92;67.03;100090.66;5003698;28;20054;-53
2021/11/04 10:14:32;;;;;;;1.75;0.43;;;;;;;8.21;66.34;100097.78;5001602;28;20050;-55
2021/11/04 10:16:59;;;;;;;2.05;0.60;;;;;;;8.45;65.31;100102.22;4998955;28;20061;-50
2021/11/04 10:19:39;;;;;;;2.17;0.55;;;;;;;8.63;65.31;100100.66;5001715;28;20038;-56
2021/11/04 10:22:05;;;;;;;0.60;0.30;;;;;;;8.60;64.79;100108.38;4997007;28;20052;-51
2021/11/04 10:24:32;;;;;;;0.47;0.25;;;;;;;8.49;63.59;100106.56;5003017;28;20765;-52
2021/11/04 10:26:59;;;;;;;1.52;0.22;;;;;;;8.55;64.14;100112.66;5006356;28;20048;-53
2021/11/04 10:29:34;;;;;;;0.75;0.50;;;;;;;8.59;65.25;100114.41;5000527;28;20077;-51
2021/11/04 10:32:01;;;;;;;2.00;0.50;;;;;;;8.59;64.41;100114.41;4997744;28;20062;-51
2021/11/04 10:34:32;;;;;;;3.45;0.98;;;;;;;8.52;63.76;100117.78;4999442;28;20053;-53
2021/11/04 10:37:19;;;;;;;0.95;0.50;;;;;;;8.45;64.75;100117.72;5001261;28;20060;-55
2021/11/04 10:39:50;;;;;;;0.43;0.20;;;;;;;8.39;65.30;100116.81;4998252;28;20107;-48
2021/11/04 10:42:17;;;;;;;0.63;0.30;;;;;;;8.41;65.09;100121.13;5007487;28;20046;-52
2021/11/04 10:44:44;;;;;;;1.55;0.55;;;;;;;8.41;64.20;100126.28;5005552;28;20050;-54
2021/11/04 10:47:18;;;;;;;5.18;0.55;;;;;;;8.36;63.85;100122.81;4999838;28;20453;-51
2021/11/04 10:49:49;;;;;;;4.00;0.30;;;;;;;8.25;64.28;100124.44;5000874;28;20120;-58
2021/11/04 10:52:23;;;;;;;2.78;0.75;;;;;;;8.26;64.35;100128.75;5007585;28;20053;-47
2021/11/04 10:54:52;;;;;;;6.35;0.60;;;;;;;8.28;64.72;100132.22;5002890;28;20112;-57
2021/11/04 10:57:39;;;;;;;4.13;1.30;;;;;;;8.30;64.42;100117.59;5002474;28;20050;-50
2021/11/04 11:00:16;;;;;;;1.00;0.40;;;;;;;8.37;64.16;100129.72;5004005;28;20049;-48
2021/11/04 11:03:07;;;;;;;1.23;0.30;;;;;;;8.41;64.15;100118.53;5000696;28;20053;-53
2021/11/04 11:05:36;;;;;;;0.55;0.25;;;;;;;8.41;65.18;100122.88;5005787;28;20103;-53
2021/11/04 11:08:05;;;;;;;4.07;0.57;;;;;;;8.49;64.68;100127.22;5003178;28;20405;-56
2021/11/04 11:10:33;;;;;;;2.10;0.60;;;;;;;8.48;64.50;100125.50;5006433;28;20058;-48
2021/11/04 11:13:00;;;;;;;1.08;0.32;;;;;;;8.58;64.26;100120.44;4996654;28;20054;-49
2021/11/04 11:15:27;;;;;;;1.15;0.30;;;;;;;8.64;64.31;100120.47;4993932;28;20050;-58
2021/11/04 11:17:55;;;;;;;1.25;0.52;;;;;;;8.71;64.31;100134.25;5003166;28;20050;-53
2021/11/04 11:20:22;;;;;;;3.33;0.60;;;;;;;8.79;63.71;100131.75;5001886;28;20096;-52
2021/11/04 11:22:49;;;;;;;3.03;0.20;;;;;;;8.96;63.82;100134.44;5004138;28;20536;-51
2021/11/04 11:25:16;;;;;;;0.55;0.32;;;;;;;8.95;62.73;100125.81;5003692;28;20046;-55
2021/11/04 11:27:44;;;;;;;1.70;0.52;;;;;;;9.02;62.96;100138.75;4998630;28;20042;-50
2021/11/04 11:30:12;;;;;;;0.80;0.30;;;;;;;9.02;62.11;100131.84;4996497;28;20141;-52
2021/11/04 11:32:39;;;;;;;0.55;0.30;;;;;;;9.03;61.97;100141.34;4999282;28;20662;-52
2021/11/04 11:35:17;;;;;;;4.13;0.50;;;;;;;9.08;61.94;100154.28;5001830;28;20100;-52
2021/11/04 11:38:03;;;;;;;4.15;0.60;;;;;;;9.10;62.46;100150.00;5006743;28;20050;-52
2021/11/04 11:40:31;;;;;;;1.45;0.70;;;;;;;9.03;62.66;100156.84;5002361;28;20056;-51
2021/11/04 11:43:02;;;;;;;3.40;0.47;;;;;;;8.93;61.80;100161.13;4999199;28;20046;-52
2021/11/04 11:45:31;;;;;;;2.15;0.40;;;;;;;8.97;63.40;100164.56;5001800;28;20053;-53